createdAt,value
2019-03-19T00:02:08.179Z,7.60
2019-03-19T00:04:39.671Z,8.90
2019-03-19T00:07:11.214Z,6.60
2019-03-19T00:09:42.629Z,7.00
2019-03-19T00:12:14.105Z,7.30
2019-03-19T00:14:45.561Z,6.13
2019-03-19T00:17:16.868Z,6.73
2019-03-19T00:19:48.474Z,3.40
2019-03-19T00:22:20.007Z,6.27
2019-03-19T00:24:51.428Z,5.63
2019-03-19T00:27:22.867Z,5.90
2019-03-19T00:29:54.303Z,7.03
2019-03-19T00:32:26.937Z,7.77
2019-03-19T00:34:59.961Z,7.57
2019-03-19T00:37:31.577Z,9.43
2019-03-19T00:40:02.970Z,5.87
2019-03-19T00:42:34.431Z,5.20
2019-03-19T00:45:08.663Z,7.03
2019-03-19T00:47:40.141Z,6.10
2019-03-19T00:50:11.699Z,10.60
2019-03-19T00:52:43.412Z,6.00
2019-03-19T00:55:14.929Z,9.77
2019-03-19T00:57:46.445Z,3.23
2019-03-19T01:00:17.973Z,8.07
2019-03-19T01:02:50.385Z,7.83
2019-03-19T01:05:21.797Z,8.33
2019-03-19T01:07:53.173Z,8.87
2019-03-19T01:10:24.597Z,8.20
2019-03-19T01:12:56.040Z,6.10
2019-03-19T01:15:29.077Z,6.10
2019-03-19T01:18:00.611Z,6.97
2019-03-19T01:20:32.099Z,7.23
2019-03-19T01:23:03.565Z,8.93
2019-03-19T01:25:35.235Z,9.60
2019-03-19T01:28:06.709Z,3.63
2019-03-19T01:30:38.117Z,9.10
2019-03-19T01:33:09.696Z,6.10
2019-03-19T01:35:41.113Z,8.57
2019-03-19T01:38:14.867Z,5.73
2019-03-19T01:40:46.295Z,8.27
2019-03-19T01:43:17.695Z,8.43
2019-03-19T01:45:49.135Z,11.13
2019-03-19T01:48:20.607Z,5.80
2019-03-19T01:50:52.000Z,6.83
2019-03-19T01:53:23.424Z,5.33
2019-03-19T01:56:04.766Z,9.87
2019-03-19T01:58:27.981Z,7.40
2019-03-19T02:01:01.143Z,6.70
2019-03-19T02:03:33.614Z,4.23
2019-03-19T02:06:05.104Z,6.80
2019-03-19T02:08:36.573Z,5.77
2019-03-19T02:11:08.099Z,8.60
2019-03-19T02:13:39.801Z,5.33
2019-03-19T02:16:11.420Z,4.27
2019-03-19T02:19:01.408Z,6.20
2019-03-19T02:21:33.831Z,8.83
2019-03-19T02:24:05.350Z,7.17
2019-03-19T02:26:36.838Z,5.70
2019-03-19T02:29:10.916Z,3.80
2019-03-19T02:31:42.521Z,9.97
2019-03-19T02:34:13.978Z,5.30
2019-03-19T02:36:45.437Z,10.03
2019-03-19T02:39:16.851Z,6.00
2019-03-19T02:41:48.290Z,9.20
2019-03-19T02:44:19.682Z,6.83
2019-03-19T02:46:51.222Z,5.27
2019-03-19T02:49:24.968Z,6.37
2019-03-19T02:51:56.367Z,7.13
2019-03-19T02:54:27.859Z,6.33
2019-03-19T02:56:59.266Z,4.33
2019-03-19T02:59:30.682Z,5.13
2019-03-19T03:02:02.237Z,5.63
2019-03-19T03:04:33.801Z,9.30
2019-03-19T03:07:05.217Z,7.53
2019-03-19T03:09:36.720Z,8.27
2019-03-19T03:12:08.280Z,6.63
2019-03-19T03:14:39.881Z,9.40
2019-03-19T03:17:11.270Z,6.67
2019-03-19T03:19:42.743Z,10.07
2019-03-19T03:22:14.162Z,7.60
2019-03-19T03:24:45.597Z,8.50
2019-03-19T03:27:17.037Z,3.03
2019-03-19T03:29:48.650Z,7.10
2019-03-19T03:32:20.074Z,6.33
2019-03-19T03:34:51.528Z,4.37
2019-03-19T03:37:22.901Z,7.90
2019-03-19T03:39:54.544Z,6.83
2019-03-19T03:42:25.976Z,7.37
2019-03-19T03:44:58.472Z,8.87
2019-03-19T03:47:29.974Z,8.30
2019-03-19T03:50:01.447Z,7.37
2019-03-19T03:52:32.874Z,6.23
2019-03-19T03:55:04.303Z,7.53
2019-03-19T03:57:35.765Z,6.00
2019-03-19T04:00:09.693Z,5.70
2019-03-19T04:02:44.498Z,7.07
2019-03-19T04:05:15.817Z,10.07
2019-03-19T04:07:47.347Z,6.70
2019-03-19T04:10:18.869Z,11.03
2019-03-19T04:12:50.376Z,9.47
2019-03-19T04:15:21.880Z,14.17
2019-03-19T04:17:54.560Z,7.87
2019-03-19T04:20:25.969Z,9.70
2019-03-19T04:22:57.570Z,13.17
2019-03-19T04:25:28.992Z,11.63
2019-03-19T04:28:00.482Z,18.30
2019-03-19T04:30:32.057Z,9.77
2019-03-19T04:33:03.455Z,8.97
2019-03-19T04:35:34.873Z,9.30
2019-03-19T04:38:06.394Z,19.00
2019-03-19T04:40:37.915Z,10.33
2019-03-19T04:43:09.402Z,10.37
2019-03-19T04:45:40.906Z,12.90
2019-03-19T04:48:12.357Z,7.17
2019-03-19T04:50:43.799Z,9.57
2019-03-19T04:53:15.205Z,9.70
2019-03-19T04:55:46.607Z,6.00
2019-03-19T04:58:18.085Z,7.90
2019-03-19T05:00:49.638Z,6.27
2019-03-19T05:03:21.175Z,9.73
2019-03-19T05:05:52.773Z,8.00
2019-03-19T05:08:24.318Z,8.53
2019-03-19T05:10:55.799Z,11.77
2019-03-19T05:13:27.332Z,9.93
2019-03-19T05:15:58.852Z,6.43
2019-03-19T05:18:31.363Z,11.13
2019-03-19T05:21:03.134Z,7.63
2019-03-19T05:23:34.669Z,10.50
2019-03-19T05:26:06.208Z,6.97
2019-03-19T05:28:37.733Z,10.33
2019-03-19T05:31:09.453Z,11.63
2019-03-19T05:33:41.027Z,7.47
2019-03-19T05:36:12.423Z,12.93
2019-03-19T05:38:43.851Z,7.83
2019-03-19T05:41:16.606Z,10.77
2019-03-19T05:43:48.285Z,12.40
2019-03-19T05:46:19.788Z,10.80
2019-03-19T05:48:52.345Z,16.33
2019-03-19T05:51:23.793Z,13.00
2019-03-19T05:53:55.220Z,11.33
2019-03-19T05:56:26.669Z,13.33
2019-03-19T05:58:58.087Z,9.90
2019-03-19T06:01:29.634Z,12.80
2019-03-19T06:04:01.416Z,12.87
2019-03-19T06:06:32.862Z,8.53
2019-03-19T06:09:06.099Z,16.87
2019-03-19T06:11:37.619Z,10.63
2019-03-19T06:14:09.265Z,11.83
2019-03-19T06:16:40.758Z,7.00
2019-03-19T06:19:12.213Z,10.47
2019-03-19T06:21:43.647Z,10.90
2019-03-19T06:24:15.074Z,11.47
2019-03-19T06:26:46.473Z,20.27
2019-03-19T06:29:17.884Z,12.77
2019-03-19T06:31:49.439Z,12.50
2019-03-19T06:34:20.952Z,12.20
2019-03-19T06:36:52.453Z,11.63
2019-03-19T06:39:24.016Z,17.13
2019-03-19T06:41:55.410Z,8.60
2019-03-19T06:44:26.887Z,15.90
2019-03-19T06:46:58.388Z,13.37
2019-03-19T06:49:29.887Z,12.20
2019-03-19T06:52:01.424Z,10.17
2019-03-19T06:54:32.927Z,13.80
2019-03-19T06:57:04.438Z,8.87
2019-03-19T06:59:35.859Z,12.43
2019-03-19T07:02:07.486Z,9.33
2019-03-19T07:04:38.968Z,8.27
2019-03-19T07:07:10.365Z,9.97
2019-03-19T07:09:41.779Z,16.50
2019-03-19T07:12:13.562Z,13.90
2019-03-19T07:14:44.968Z,12.30
2019-03-19T07:17:16.420Z,15.67
2019-03-19T07:19:47.833Z,9.83
2019-03-19T07:22:19.276Z,12.03
2019-03-19T07:24:50.659Z,15.50
2019-03-19T07:27:25.790Z,17.20
2019-03-19T07:29:57.228Z,21.13
2019-03-19T07:32:28.854Z,8.93
2019-03-19T07:35:01.366Z,11.80
2019-03-19T07:37:32.926Z,8.80
2019-03-19T07:40:06.206Z,9.57
2019-03-19T07:42:37.630Z,11.20
2019-03-19T07:45:11.796Z,11.73
2019-03-19T07:47:43.309Z,13.33
2019-03-19T07:50:15.367Z,6.37
2019-03-19T07:52:46.801Z,9.60
2019-03-19T07:55:18.814Z,8.80
2019-03-19T07:57:50.434Z,14.37
2019-03-19T08:00:21.907Z,16.10
2019-03-19T08:02:54.515Z,11.43
2019-03-19T08:05:33.110Z,8.40
2019-03-19T08:07:59.421Z,10.23
2019-03-19T08:10:31.150Z,10.27
2019-03-19T08:13:02.682Z,15.17
2019-03-19T08:15:34.131Z,13.97
2019-03-19T08:18:05.606Z,10.83
2019-03-19T08:20:37.015Z,11.90
2019-03-19T08:23:09.147Z,19.80
2019-03-19T08:25:40.877Z,10.77
2019-03-19T08:28:15.819Z,12.13
2019-03-19T08:30:49.619Z,13.13
2019-03-19T08:33:20.854Z,9.97
2019-03-19T08:35:52.654Z,14.63
2019-03-19T08:38:26.354Z,18.03
2019-03-19T08:40:57.170Z,13.63
2019-03-19T08:43:28.925Z,9.10
2019-03-19T08:46:00.688Z,10.37
2019-03-19T08:48:32.133Z,14.23
2019-03-19T08:51:03.645Z,16.77
2019-03-19T08:53:35.263Z,17.33
2019-03-19T08:56:07.012Z,8.93
2019-03-19T08:58:38.685Z,14.27
2019-03-19T09:01:10.279Z,18.20
2019-03-19T09:03:41.711Z,15.53
2019-03-19T09:06:13.224Z,13.97
2019-03-19T09:08:47.312Z,16.27
2019-03-19T09:11:18.822Z,11.63
2019-03-19T09:13:51.317Z,10.50
2019-03-19T09:16:23.001Z,12.37
2019-03-19T09:18:54.417Z,7.93
2019-03-19T09:21:26.126Z,13.73
2019-03-19T09:23:57.660Z,9.57
2019-03-19T09:26:30.766Z,9.40
2019-03-19T09:29:02.173Z,14.60
2019-03-19T09:31:33.686Z,12.80
2019-03-19T09:34:05.237Z,15.40
2019-03-19T09:36:36.636Z,15.57
2019-03-19T09:39:09.166Z,12.77
2019-03-19T09:41:40.580Z,9.73
2019-03-19T09:44:12.001Z,9.03
2019-03-19T09:46:43.425Z,10.53
2019-03-19T09:49:14.828Z,10.10
2019-03-19T09:51:46.299Z,6.00
2019-03-19T09:54:17.682Z,13.10
2019-03-19T09:56:50.096Z,9.67
2019-03-19T09:59:27.043Z,8.83
2019-03-19T10:01:54.564Z,7.47
2019-03-19T10:04:32.811Z,8.60
2019-03-19T10:07:06.203Z,15.83
2019-03-19T10:09:38.275Z,11.77
2019-03-19T10:12:10.378Z,10.90
2019-03-19T10:14:44.263Z,8.43
2019-03-19T10:17:16.027Z,9.00
2019-03-19T10:19:47.468Z,9.93
2019-03-19T10:22:21.998Z,10.33
2019-03-19T10:24:54.031Z,13.93
2019-03-19T10:27:25.866Z,9.63
2019-03-19T10:30:01.518Z,7.83
2019-03-19T10:32:33.112Z,11.57
2019-03-19T10:35:06.916Z,9.57
2019-03-19T10:37:38.542Z,10.70
2019-03-19T10:40:10.171Z,16.53
2019-03-19T10:42:41.596Z,8.10
2019-03-19T10:45:13.982Z,10.53
2019-03-19T10:47:46.270Z,12.00
2019-03-19T10:50:19.406Z,10.33
2019-03-19T10:52:50.898Z,6.60
2019-03-19T10:55:23.415Z,7.13
2019-03-19T10:57:54.877Z,10.40
2019-03-19T11:00:26.773Z,7.37
2019-03-19T11:02:58.488Z,9.63
2019-03-19T11:05:30.034Z,11.03
2019-03-19T11:08:01.519Z,7.70
2019-03-19T11:10:34.650Z,7.30
2019-03-19T11:13:06.313Z,7.93
2019-03-19T11:15:40.074Z,6.03
2019-03-19T11:18:12.277Z,7.17
2019-03-19T11:20:45.548Z,6.00
2019-03-19T11:23:30.045Z,6.80
2019-03-19T11:26:01.564Z,7.40
2019-03-19T11:28:40.482Z,7.47
2019-03-19T11:31:08.927Z,7.53
2019-03-19T11:33:42.242Z,9.13
2019-03-19T11:36:17.352Z,8.03
2019-03-19T11:38:48.809Z,7.77
2019-03-19T11:41:20.604Z,9.40
2019-03-19T11:43:52.193Z,8.37
2019-03-19T11:46:26.160Z,10.43
2019-03-19T11:48:57.580Z,6.73
2019-03-19T11:51:30.282Z,9.50
2019-03-19T11:54:02.309Z,11.70
2019-03-19T11:56:33.987Z,8.63
2019-03-19T11:59:07.350Z,8.23
2019-03-19T12:01:38.802Z,7.57
2019-03-19T12:04:10.213Z,11.17
2019-03-19T12:06:48.482Z,11.07
2019-03-19T12:09:19.997Z,4.67
2019-03-19T12:11:52.497Z,5.20
2019-03-19T12:14:23.895Z,6.50
2019-03-19T12:16:55.351Z,3.80
2019-03-19T12:19:26.750Z,5.57
2019-03-19T12:21:58.245Z,6.10
2019-03-19T12:24:29.671Z,4.80
2019-03-19T12:27:01.124Z,9.27
2019-03-19T12:29:32.535Z,6.77
2019-03-19T12:32:05.142Z,6.47
2019-03-19T12:34:36.551Z,5.37
2019-03-19T12:37:08.015Z,6.43
2019-03-19T12:39:39.425Z,6.40
2019-03-19T12:42:10.883Z,4.73
2019-03-19T12:44:42.381Z,6.73
2019-03-19T12:47:13.911Z,5.80
2019-03-19T12:49:45.468Z,5.10
2019-03-19T12:52:16.905Z,5.03
2019-03-19T12:54:48.394Z,9.23
2019-03-19T12:57:19.984Z,7.23
2019-03-19T12:59:52.747Z,6.77
2019-03-19T13:02:24.296Z,4.20
2019-03-19T13:04:55.775Z,5.80
2019-03-19T13:07:31.581Z,4.73
2019-03-19T13:10:05.380Z,4.57
2019-03-19T13:12:36.905Z,5.90
2019-03-19T13:15:09.031Z,5.83
2019-03-19T13:17:40.490Z,5.50
2019-03-19T13:20:12.707Z,7.67
2019-03-19T13:22:44.270Z,4.60
2019-03-19T13:25:17.310Z,6.67
2019-03-19T13:27:48.749Z,4.57
2019-03-19T13:30:20.460Z,4.13
2019-03-19T13:32:51.947Z,4.70
2019-03-19T13:35:23.370Z,4.37
2019-03-19T13:37:54.894Z,5.83
2019-03-19T13:40:26.305Z,7.83
2019-03-19T13:42:58.987Z,3.63
2019-03-19T13:45:30.530Z,4.53
2019-03-19T13:48:02.083Z,3.63
2019-03-19T13:50:33.593Z,4.23
2019-03-19T13:53:05.076Z,5.00
2019-03-19T13:55:36.530Z,6.93
2019-03-19T13:58:07.943Z,6.33
2019-03-19T14:00:39.393Z,6.63
2019-03-19T14:03:12.361Z,6.53
2019-03-19T14:05:43.817Z,7.07
2019-03-19T14:08:17.734Z,6.50
2019-03-19T14:10:48.262Z,5.77
2019-03-19T14:13:19.715Z,10.53
2019-03-19T14:15:51.153Z,4.47
2019-03-19T14:18:22.576Z,6.10
2019-03-19T14:20:54.053Z,5.53
2019-03-19T14:23:25.493Z,2.87
2019-03-19T14:25:56.901Z,3.97
2019-03-19T14:28:32.672Z,3.23
2019-03-19T14:31:08.888Z,6.27
2019-03-19T14:33:38.352Z,3.27
2019-03-19T14:36:10.443Z,6.40
2019-03-19T14:38:47.023Z,6.20
2019-03-19T14:41:15.171Z,7.77
2019-03-19T14:43:46.649Z,9.33
2019-03-19T14:46:18.042Z,7.20
2019-03-19T14:48:49.464Z,9.10
2019-03-19T14:51:20.899Z,8.63
2019-03-19T14:53:52.407Z,10.13
2019-03-19T14:56:23.983Z,8.13
2019-03-19T14:58:55.396Z,8.93
2019-03-19T15:01:26.799Z,7.40
2019-03-19T15:03:58.304Z,8.60
2019-03-19T15:06:29.841Z,8.30
2019-03-19T15:09:01.332Z,5.77
2019-03-19T15:11:34.599Z,4.00
2019-03-19T15:14:06.043Z,8.90
2019-03-19T15:16:37.499Z,7.03
2019-03-19T15:19:08.934Z,9.40
2019-03-19T15:21:40.441Z,7.67
2019-03-19T15:24:11.923Z,7.20
2019-03-19T15:26:43.432Z,7.10
2019-03-19T15:29:14.873Z,9.17
2019-03-19T15:31:46.343Z,9.77
2019-03-19T15:34:18.983Z,9.90
2019-03-19T15:36:50.401Z,9.27
2019-03-19T15:39:21.911Z,10.00
2019-03-19T15:41:54.495Z,7.63
2019-03-19T15:44:25.983Z,6.17
2019-03-19T15:46:57.450Z,8.00
2019-03-19T15:49:37.812Z,9.77
2019-03-19T15:52:01.946Z,9.60
2019-03-19T15:54:33.441Z,14.33
2019-03-19T15:57:04.867Z,12.57
2019-03-19T15:59:36.309Z,7.30
2019-03-19T16:02:07.733Z,9.80
2019-03-19T16:04:39.220Z,7.40
2019-03-19T16:07:10.931Z,5.40
2019-03-19T16:09:42.463Z,4.80
2019-03-19T16:12:14.345Z,5.67
2019-03-19T16:14:46.151Z,3.73
2019-03-19T16:17:17.956Z,5.93
2019-03-19T16:19:53.146Z,5.37
2019-03-19T16:22:24.743Z,3.50
2019-03-19T16:24:56.296Z,5.70
2019-03-19T16:27:27.832Z,7.67
2019-03-19T16:29:59.242Z,9.40
2019-03-19T16:32:30.767Z,7.63
2019-03-19T16:35:02.604Z,8.17
2019-03-19T16:37:34.651Z,7.90
2019-03-19T16:40:07.823Z,9.13
2019-03-19T16:42:39.390Z,5.80
2019-03-19T16:45:12.276Z,6.57
2019-03-19T16:47:43.748Z,5.77
2019-03-19T16:50:15.414Z,6.20
2019-03-19T16:52:47.032Z,9.37
2019-03-19T16:55:18.707Z,8.67
2019-03-19T16:57:50.952Z,8.70
2019-03-19T17:00:22.895Z,8.90
2019-03-19T17:02:54.743Z,7.87
2019-03-19T17:05:27.013Z,7.77
2019-03-19T17:07:59.617Z,10.73
2019-03-19T17:10:31.249Z,9.50
2019-03-19T17:13:02.860Z,12.77
2019-03-19T17:15:34.531Z,15.13
2019-03-19T17:18:06.110Z,14.07
2019-03-19T17:20:37.605Z,10.53
2019-03-19T17:23:09.143Z,11.93
2019-03-19T17:25:43.924Z,9.90
2019-03-19T17:28:22.351Z,15.03
2019-03-19T17:30:49.027Z,15.60
2019-03-19T17:33:20.809Z,14.53
2019-03-19T17:35:52.544Z,16.70
2019-03-19T17:38:24.248Z,17.50
2019-03-19T17:40:55.767Z,19.60
2019-03-19T17:43:27.195Z,13.00
2019-03-19T17:45:58.756Z,15.07
2019-03-19T17:48:30.458Z,18.33
2019-03-19T17:51:02.092Z,16.90
2019-03-19T17:53:33.682Z,21.13
2019-03-19T17:56:09.984Z,22.27
2019-03-19T17:58:39.277Z,19.73
2019-03-19T18:01:17.386Z,27.97
2019-03-19T18:03:44.195Z,26.03
2019-03-19T18:06:15.760Z,26.53
2019-03-19T18:08:47.287Z,27.37
2019-03-19T18:11:18.758Z,28.80
2019-03-19T18:13:50.262Z,27.40
2019-03-19T18:16:21.799Z,30.33
2019-03-19T18:18:53.312Z,25.77
2019-03-19T18:21:24.775Z,26.60
2019-03-19T18:23:56.237Z,35.07
2019-03-19T18:26:27.790Z,30.87
2019-03-19T18:28:59.328Z,32.33
2019-03-19T18:31:30.764Z,28.73
2019-03-19T18:34:09.942Z,30.20
2019-03-19T18:36:35.318Z,32.53
2019-03-19T18:39:08.716Z,25.37
2019-03-19T18:41:40.183Z,30.27
2019-03-19T18:44:11.750Z,30.77
2019-03-19T18:46:43.182Z,34.20
2019-03-19T18:49:14.801Z,36.13
2019-03-19T18:51:46.175Z,29.70
2019-03-19T18:54:17.659Z,33.00
2019-03-19T18:56:49.087Z,26.87
2019-03-19T18:59:20.624Z,35.37
2019-03-19T19:01:52.226Z,38.77
2019-03-19T19:04:23.757Z,30.77
2019-03-19T19:06:55.289Z,30.57
2019-03-19T19:09:26.741Z,18.87
2019-03-19T19:11:58.156Z,20.63
2019-03-19T19:14:29.639Z,16.43
2019-03-19T19:17:01.175Z,16.23
2019-03-19T19:19:32.561Z,18.43
2019-03-19T19:22:04.094Z,33.00
2019-03-19T19:24:35.587Z,24.17
2019-03-19T19:27:07.084Z,21.33
2019-03-19T19:29:38.498Z,18.33
2019-03-19T19:32:11.445Z,15.20
2019-03-19T19:34:46.438Z,18.70
2019-03-19T19:37:17.888Z,13.33
2019-03-19T19:39:49.337Z,16.23
2019-03-19T19:42:20.781Z,16.90
2019-03-19T19:44:52.246Z,19.70
2019-03-19T19:47:23.695Z,17.10
2019-03-19T19:49:55.105Z,17.63
2019-03-19T19:52:26.593Z,18.33
2019-03-19T19:54:58.274Z,17.43
2019-03-19T19:57:29.782Z,17.37
2019-03-19T20:00:02.130Z,15.33
2019-03-19T20:02:41.519Z,17.00
2019-03-19T20:05:13.057Z,14.03
2019-03-19T20:07:44.803Z,14.67
2019-03-19T20:10:17.716Z,17.73
2019-03-19T20:12:49.110Z,14.90
2019-03-19T20:15:20.635Z,15.80
2019-03-19T20:17:52.254Z,15.23
2019-03-19T20:20:23.719Z,15.63
2019-03-19T20:22:55.165Z,14.10
2019-03-19T20:25:26.719Z,18.17
2019-03-19T20:27:58.485Z,18.03
2019-03-19T20:30:30.218Z,17.70
2019-03-19T20:33:01.806Z,14.77
2019-03-19T20:35:34.462Z,17.00
2019-03-19T20:38:06.105Z,21.03
2019-03-19T20:40:37.538Z,24.70
2019-03-19T20:43:10.039Z,14.43
2019-03-19T20:45:41.480Z,21.00
2019-03-19T20:48:13.166Z,15.73
2019-03-19T20:50:44.615Z,17.67
2019-03-19T20:53:17.148Z,20.63
2019-03-19T20:55:48.644Z,14.07
2019-03-19T20:58:20.207Z,16.63
2019-03-19T21:00:53.201Z,24.47
2019-03-19T21:03:35.296Z,20.20
2019-03-19T21:06:04.058Z,17.43
2019-03-19T21:08:35.582Z,22.73
2019-03-19T21:11:08.203Z,17.40
2019-03-19T21:13:39.766Z,23.60
2019-03-19T21:16:11.173Z,31.43
2019-03-19T21:18:42.731Z,57.43
2019-03-19T21:21:14.189Z,108.90
2019-03-19T21:23:48.627Z,136.57
2019-03-19T21:26:20.159Z,148.20
2019-03-19T21:28:51.800Z,139.57
2019-03-19T21:31:23.286Z,137.77
2019-03-19T21:34:01.122Z,138.47
2019-03-19T21:36:33.760Z,136.33
2019-03-19T21:39:08.205Z,128.33
2019-03-19T21:41:41.301Z,117.10
2019-03-19T21:44:14.381Z,136.77
2019-03-19T21:46:45.906Z,165.27
2019-03-19T21:49:17.474Z,167.53
2019-03-19T21:51:48.960Z,179.13
2019-03-19T21:54:20.410Z,156.93
2019-03-19T21:56:51.982Z,155.20
2019-03-19T21:59:30.126Z,147.20
2019-03-19T22:02:01.801Z,117.57
2019-03-19T22:04:37.433Z,108.60
2019-03-19T22:07:08.880Z,89.13
2019-03-19T22:09:40.464Z,96.67
2019-03-19T22:12:12.180Z,83.83
2019-03-19T22:14:43.765Z,101.77
2019-03-19T22:17:15.350Z,109.73
2019-03-19T22:19:46.950Z,118.13
2019-03-19T22:22:18.439Z,113.90
2019-03-19T22:24:49.968Z,114.27
2019-03-19T22:27:21.480Z,111.53
2019-03-19T22:30:00.843Z,128.77
2019-03-19T22:32:34.453Z,129.80
2019-03-19T22:35:10.582Z,125.47
2019-03-19T22:37:42.010Z,130.37
2019-03-19T22:40:14.570Z,140.37
2019-03-19T22:42:46.425Z,166.53
2019-03-19T22:45:17.880Z,159.40
2019-03-19T23:47:40.800Z,101.43
2019-03-19T23:50:12.909Z,122.97
2019-03-19T23:52:45.014Z,111.33
2019-03-19T23:55:16.467Z,109.97
2019-03-19T23:57:49.538Z,100.30
